createdAt,value
2023-02-17T00:02:15.754Z,95828.91
2023-02-17T00:04:42.292Z,95824.75
2023-02-17T00:07:08.793Z,95821.31
2023-02-17T00:09:36.917Z,95827.22
2023-02-17T00:12:03.630Z,95820.28
2023-02-17T00:14:30.256Z,95823.53
2023-02-17T00:16:57.551Z,95820.91
2023-02-17T00:19:25.248Z,95817.59
2023-02-17T00:22:10.395Z,95813.25
2023-02-17T00:24:40.623Z,95816.59
2023-02-17T00:27:07.308Z,95820.13
2023-02-17T00:29:34.040Z,95817.59
2023-02-17T00:32:00.717Z,95815.78
2023-02-17T00:34:28.150Z,95817.22
2023-02-17T00:36:54.657Z,95812.63
2023-02-17T00:39:21.213Z,95805.28
2023-02-17T00:41:47.801Z,95809.53
2023-02-17T00:44:22.224Z,95812.06
2023-02-17T00:46:48.968Z,95804.31
2023-02-17T00:49:20.722Z,95797.63
2023-02-17T00:51:47.840Z,95801.22
2023-02-17T00:54:14.776Z,95803.31
2023-02-17T00:56:41.678Z,95799.16
2023-02-17T00:59:08.811Z,95795.94
2023-02-17T01:01:35.893Z,95786.47
2023-02-17T01:04:02.632Z,95791.47
2023-02-17T01:06:32.909Z,95795.69
2023-02-17T01:08:59.457Z,95794.00
2023-02-17T01:11:29.858Z,95791.22
2023-02-17T01:13:57.424Z,95788.97
2023-02-17T01:16:27.590Z,95789.88
2023-02-17T01:18:54.363Z,95780.66
2023-02-17T01:21:27.300Z,95767.97
2023-02-17T01:23:56.586Z,95781.28
2023-02-17T01:26:25.884Z,95772.09
2023-02-17T01:28:53.967Z,95766.13
2023-02-17T01:31:21.464Z,95765.75
2023-02-17T01:33:48.093Z,95764.59
2023-02-17T01:36:16.852Z,95768.44
2023-02-17T01:38:43.752Z,95761.78
2023-02-17T01:41:11.141Z,95754.50
2023-02-17T01:43:37.587Z,95757.84
2023-02-17T01:46:06.826Z,95754.25
2023-02-17T01:48:35.151Z,95754.25
2023-02-17T01:51:36.763Z,95760.94
2023-02-17T01:54:08.479Z,95760.84
2023-02-17T01:56:38.095Z,95752.69
2023-02-17T01:59:13.284Z,95751.91
2023-02-17T02:01:40.281Z,95739.34
2023-02-17T02:04:07.378Z,95743.34
2023-02-17T02:06:35.078Z,95745.13
2023-02-17T02:09:06.344Z,95743.34
2023-02-17T02:11:33.938Z,95744.16
2023-02-17T02:14:00.950Z,95746.75
2023-02-17T02:16:30.585Z,95739.22
2023-02-17T02:19:18.717Z,95734.81
2023-02-17T02:21:57.442Z,95733.72
2023-02-17T02:24:33.268Z,95733.53
2023-02-17T02:27:19.404Z,95729.88
2023-02-17T02:29:57.494Z,95728.69
2023-02-17T02:32:57.555Z,95728.41
2023-02-17T02:35:36.959Z,95733.47
2023-02-17T02:38:18.891Z,95731.84
2023-02-17T02:40:53.143Z,95732.03
2023-02-17T02:43:20.294Z,95728.88
2023-02-17T02:45:46.790Z,95729.63
2023-02-17T02:48:13.575Z,95722.75
2023-02-17T02:51:05.983Z,95724.63
2023-02-17T02:54:04.980Z,95716.19
2023-02-17T02:56:56.235Z,95706.00
2023-02-17T02:59:28.419Z,95707.50
2023-02-17T03:02:05.913Z,95706.34
2023-02-17T03:04:37.450Z,95719.19
2023-02-17T03:07:09.616Z,95718.47
2023-02-17T03:09:36.422Z,95712.69
2023-02-17T03:12:02.975Z,95704.91
2023-02-17T03:14:31.194Z,95708.31
2023-02-17T03:16:58.332Z,95709.72
2023-02-17T03:19:25.297Z,95714.75
2023-02-17T03:22:10.276Z,95709.69
2023-02-17T03:24:36.802Z,95710.84
2023-02-17T03:27:03.507Z,95721.66
2023-02-17T03:29:30.565Z,95713.34
2023-02-17T03:31:57.480Z,95711.91
2023-02-17T03:34:24.292Z,95715.19
2023-02-17T03:36:50.886Z,95715.81
2023-02-17T03:39:17.679Z,95702.44
2023-02-17T03:41:44.228Z,95704.94
2023-02-17T03:44:10.841Z,95718.25
2023-02-17T03:46:39.979Z,95725.84
2023-02-17T03:49:06.539Z,95716.53
2023-02-17T03:51:33.135Z,95725.13
2023-02-17T03:53:59.705Z,95715.91
2023-02-17T03:56:26.639Z,95709.03
2023-02-17T03:58:53.386Z,95700.19
2023-02-17T04:01:20.019Z,95692.97
2023-02-17T04:03:46.869Z,95689.31
2023-02-17T04:06:13.550Z,95695.16
2023-02-17T04:08:40.289Z,95688.09
2023-02-17T04:11:09.160Z,95683.06
2023-02-17T04:13:35.759Z,95688.28
2023-02-17T04:16:04.367Z,95697.88
2023-02-17T04:18:31.954Z,95705.53
2023-02-17T04:20:58.584Z,95697.56
2023-02-17T04:23:25.080Z,95694.56
2023-02-17T04:25:51.682Z,95694.47
2023-02-17T04:28:18.317Z,95693.59
2023-02-17T04:30:46.328Z,95695.28
2023-02-17T04:33:13.599Z,95676.16
2023-02-17T04:35:40.553Z,95680.91
2023-02-17T04:38:07.474Z,95680.72
2023-02-17T04:40:34.227Z,95680.38
2023-02-17T04:43:00.708Z,95676.66
2023-02-17T04:45:27.231Z,95673.38
2023-02-17T04:47:53.760Z,95670.38
2023-02-17T04:50:21.091Z,95678.09
2023-02-17T04:52:47.844Z,95672.44
2023-02-17T04:55:14.464Z,95665.56
2023-02-17T04:57:41.028Z,95660.84
2023-02-17T05:00:08.444Z,95635.34
2023-02-17T05:02:35.121Z,95637.16
2023-02-17T05:05:01.714Z,95647.88
2023-02-17T05:07:28.365Z,95649.50
2023-02-17T05:09:54.913Z,95657.44
2023-02-17T05:12:21.465Z,95651.22
2023-02-17T05:14:48.069Z,95646.03
2023-02-17T05:17:14.576Z,95649.31
2023-02-17T05:19:41.049Z,95646.69
2023-02-17T05:22:07.553Z,95640.03
2023-02-17T05:24:34.085Z,95636.75
2023-02-17T05:27:00.650Z,95631.50
2023-02-17T05:29:27.175Z,95633.03
2023-02-17T05:31:53.752Z,95625.53
2023-02-17T05:34:20.251Z,95624.50
2023-02-17T05:36:46.731Z,95629.47
2023-02-17T05:39:13.197Z,95629.28
2023-02-17T05:41:39.892Z,95627.66
2023-02-17T05:44:06.355Z,95626.63
2023-02-17T05:46:32.833Z,95624.81
2023-02-17T05:48:59.458Z,95621.09
2023-02-17T05:51:25.903Z,95627.56
2023-02-17T05:53:52.364Z,95618.28
2023-02-17T05:56:18.855Z,95620.06
2023-02-17T05:58:45.317Z,95619.59
2023-02-17T06:01:12.637Z,95613.31
2023-02-17T06:03:39.323Z,95605.25
2023-02-17T06:06:07.421Z,95610.19
2023-02-17T06:08:35.110Z,95612.91
2023-02-17T06:11:01.856Z,95611.97
2023-02-17T06:13:28.365Z,95615.88
2023-02-17T06:15:55.107Z,95620.66
2023-02-17T06:18:21.738Z,95616.69
2023-02-17T06:20:48.250Z,95617.78
2023-02-17T06:23:14.817Z,95619.38
2023-02-17T06:25:41.405Z,95623.94
2023-02-17T06:28:07.992Z,95615.28
2023-02-17T06:30:34.496Z,95618.72
2023-02-17T06:33:01.200Z,95621.97
2023-02-17T06:35:27.771Z,95616.22
2023-02-17T06:37:54.347Z,95618.31
2023-02-17T06:40:21.093Z,95616.09
2023-02-17T06:42:47.600Z,95608.59
2023-02-17T06:45:14.179Z,95602.75
2023-02-17T06:47:40.801Z,95598.47
2023-02-17T06:50:08.613Z,95594.56
2023-02-17T06:52:35.227Z,95600.38
2023-02-17T06:55:01.937Z,95597.72
2023-02-17T06:57:28.598Z,95601.81
2023-02-17T06:59:55.147Z,95598.97
2023-02-17T07:02:22.732Z,95593.13
2023-02-17T07:04:49.443Z,95601.84
2023-02-17T07:07:15.926Z,95598.47
2023-02-17T08:53:23.911Z,95565.81
2023-02-17T08:55:50.517Z,95555.94
2023-02-17T08:58:17.362Z,95556.09
2023-02-17T09:00:44.002Z,95551.00
2023-02-17T09:03:10.601Z,95550.50
2023-02-17T09:05:37.472Z,95560.13
2023-02-17T09:08:04.460Z,95553.94
2023-02-17T09:10:31.557Z,95551.31
2023-02-17T09:12:58.227Z,95554.25
2023-02-17T09:15:24.786Z,95552.09
2023-02-17T09:17:51.399Z,95553.09
2023-02-17T09:20:24.751Z,95554.06
2023-02-17T09:22:52.505Z,95553.88
2023-02-17T09:25:19.240Z,95543.75
2023-02-17T09:27:45.753Z,95541.53
2023-02-17T09:30:12.954Z,95546.38
2023-02-17T09:32:43.376Z,95540.19
2023-02-17T09:35:14.797Z,95530.38
2023-02-17T09:37:41.308Z,95533.84
2023-02-17T09:40:09.798Z,95530.00
2023-02-17T09:42:39.407Z,95526.28
2023-02-17T09:45:11.934Z,95527.31
2023-02-17T09:47:51.231Z,95515.91
2023-02-17T09:50:27.884Z,95505.22
2023-02-17T09:53:06.925Z,95506.44
2023-02-17T09:55:38.876Z,95501.03
2023-02-17T09:58:09.691Z,95502.38
2023-02-17T10:00:41.596Z,95497.84
2023-02-17T10:03:12.982Z,95501.59
2023-02-17T10:05:45.482Z,95494.16
2023-02-17T10:08:17.791Z,95494.81
2023-02-17T10:11:01.067Z,95498.63
2023-02-17T10:13:30.926Z,95497.97
2023-02-17T10:16:03.316Z,95501.69
2023-02-17T10:18:41.992Z,95497.66
2023-02-17T10:21:13.420Z,95494.44
2023-02-17T10:23:40.058Z,95488.44
2023-02-17T10:26:13.608Z,95474.16
2023-02-17T10:29:07.366Z,95473.41
2023-02-17T10:31:48.186Z,95476.75
2023-02-17T10:34:52.569Z,95478.78
2023-02-17T10:37:21.840Z,95469.28
2023-02-17T10:39:53.829Z,95457.34
2023-02-17T10:42:28.186Z,95453.38
2023-02-17T10:44:59.186Z,95443.53
2023-02-17T10:47:25.791Z,95441.22
2023-02-17T10:49:53.784Z,95438.91
2023-02-17T10:52:22.836Z,95429.09
2023-02-17T10:54:59.881Z,95430.91
2023-02-17T10:57:30.310Z,95426.81
2023-02-17T10:59:58.389Z,95423.03
2023-02-17T11:02:41.625Z,95423.34
2023-02-17T11:05:09.108Z,95419.63
2023-02-17T11:07:38.252Z,95413.97
2023-02-17T11:10:29.584Z,95397.19
2023-02-17T11:12:58.751Z,95396.38
2023-02-17T11:15:51.131Z,95392.81
2023-02-17T11:18:28.446Z,95387.78
2023-02-17T11:21:08.444Z,95378.59
2023-02-17T11:23:36.061Z,95373.63
2023-02-17T11:26:18.279Z,95364.72
2023-02-17T11:28:45.306Z,95360.44
2023-02-17T11:31:31.721Z,95348.31
2023-02-17T11:33:58.327Z,95343.66
2023-02-17T11:36:28.080Z,95336.66
2023-02-17T11:38:58.062Z,95326.00
2023-02-17T11:41:24.953Z,95318.13
2023-02-17T11:43:53.879Z,95317.22
2023-02-17T11:46:33.757Z,95318.94
2023-02-17T11:49:37.314Z,95312.19
2023-02-17T11:52:49.083Z,95305.69
2023-02-17T11:55:22.432Z,95302.66
2023-02-17T11:58:02.775Z,95295.25
2023-02-17T12:00:54.502Z,95304.69
2023-02-17T12:03:30.195Z,95291.50
2023-02-17T12:06:24.574Z,95283.69
2023-02-17T12:08:51.097Z,95279.16
2023-02-17T12:11:27.826Z,95266.41
2023-02-17T12:14:10.814Z,95263.19
2023-02-17T12:16:45.031Z,95255.31
2023-02-17T12:19:46.352Z,95240.00
2023-02-17T12:22:31.726Z,95236.31
2023-02-17T12:25:15.090Z,95224.78
2023-02-17T12:28:00.339Z,95212.63
2023-02-17T12:30:32.933Z,95208.31
2023-02-17T12:33:07.463Z,95200.44
2023-02-17T12:35:53.501Z,95193.59
2023-02-17T12:38:34.828Z,95185.31
2023-02-17T12:41:21.358Z,95186.59
2023-02-17T12:43:51.023Z,95183.25
2023-02-17T12:46:22.587Z,95192.31
2023-02-17T12:48:58.019Z,95186.41
2023-02-17T12:51:34.351Z,95183.91
2023-02-17T12:54:17.217Z,95173.16
2023-02-17T12:57:13.494Z,95174.97
2023-02-17T12:59:42.137Z,95171.63
2023-02-17T13:02:20.803Z,95164.13
2023-02-17T13:04:52.993Z,95162.25
2023-02-17T13:07:41.022Z,95156.78
2023-02-17T13:10:08.247Z,95151.66
2023-02-17T13:12:40.346Z,95148.00
2023-02-17T13:15:27.242Z,95141.66
2023-02-17T13:18:01.306Z,95142.28
2023-02-17T13:20:45.962Z,95133.34
2023-02-17T13:23:14.850Z,95130.38
2023-02-17T13:25:41.572Z,95122.19
2023-02-17T13:28:34.759Z,95112.31
2023-02-17T13:31:22.404Z,95101.75
2023-02-17T13:33:52.917Z,95108.28
2023-02-17T13:36:28.084Z,95106.91
2023-02-17T13:39:02.131Z,95095.75
2023-02-17T13:41:33.542Z,95095.13
2023-02-17T13:44:00.207Z,95096.81
2023-02-17T13:46:27.336Z,95090.47
2023-02-17T13:49:05.670Z,95089.91
2023-02-17T13:51:33.595Z,95085.78
2023-02-17T13:54:08.529Z,95077.13
2023-02-17T13:56:35.108Z,95071.75
2023-02-17T13:59:18.007Z,95071.19
2023-02-17T14:01:46.214Z,95074.28
2023-02-17T14:04:24.522Z,95065.47
2023-02-17T14:06:52.645Z,95060.59
2023-02-17T14:09:22.280Z,95061.50
2023-02-17T14:11:49.768Z,95056.00
2023-02-17T14:14:16.988Z,95050.84
2023-02-17T14:16:44.307Z,95043.13
2023-02-17T14:19:13.869Z,95040.63
2023-02-17T14:21:45.687Z,95030.78
2023-02-17T14:24:30.572Z,95023.56
2023-02-17T14:27:03.319Z,95018.06
2023-02-17T14:29:47.873Z,95004.63
2023-02-17T14:32:40.292Z,95001.09
2023-02-17T14:35:20.987Z,94993.00
2023-02-17T14:37:47.853Z,94985.63
2023-02-17T14:40:21.540Z,94978.66
2023-02-17T14:42:48.329Z,94963.44
2023-02-17T14:45:15.875Z,94965.59
2023-02-17T14:47:43.194Z,94964.44
2023-02-17T14:50:10.322Z,94965.78
2023-02-17T14:52:42.387Z,94948.84
2023-02-17T14:55:35.276Z,94938.56
2023-02-17T14:58:02.342Z,94943.16
2023-02-17T15:00:28.948Z,94930.25
2023-02-17T15:02:56.443Z,94930.63
2023-02-17T15:05:23.266Z,94920.88
2023-02-17T15:07:50.263Z,94922.31
2023-02-17T15:10:23.790Z,94917.34
2023-02-17T15:12:51.235Z,94913.31
2023-02-17T15:15:18.623Z,94908.19
2023-02-17T15:17:45.305Z,94915.84
2023-02-17T15:20:13.036Z,94909.25
2023-02-17T15:22:41.799Z,94907.00
2023-02-17T15:25:17.072Z,94895.91
2023-02-17T15:27:43.764Z,94889.88
2023-02-17T15:30:13.408Z,94894.03
2023-02-17T15:32:40.392Z,94873.91
2023-02-17T15:35:26.792Z,94868.25
2023-02-17T15:37:53.996Z,94865.63
2023-02-17T15:40:22.904Z,94854.91
2023-02-17T15:42:57.509Z,94849.50
2023-02-17T15:45:24.830Z,94842.03
2023-02-17T15:47:55.873Z,94834.91
2023-02-17T15:50:23.242Z,94825.41
2023-02-17T15:52:51.140Z,94829.94
2023-02-17T15:55:19.135Z,94829.75
2023-02-17T15:57:48.485Z,94815.78
2023-02-17T16:00:24.263Z,94809.22
2023-02-17T16:02:51.084Z,94807.69
2023-02-17T16:05:19.653Z,94792.34
2023-02-17T16:07:46.627Z,94799.66
2023-02-17T16:10:17.231Z,94794.59
2023-02-17T16:12:44.232Z,94794.59
2023-02-17T16:15:13.851Z,94790.63
2023-02-17T16:17:41.037Z,94788.09
2023-02-17T16:20:15.964Z,94773.59
2023-02-17T16:22:43.733Z,94764.50
2023-02-17T16:25:10.434Z,94771.78
2023-02-17T16:27:37.944Z,94761.69
2023-02-17T16:30:18.810Z,94756.94
2023-02-17T16:32:45.841Z,94749.34
2023-02-17T16:35:17.365Z,94757.72
2023-02-17T16:38:07.720Z,94756.00
2023-02-17T16:40:36.654Z,94748.34
2023-02-17T16:43:03.732Z,94743.47
2023-02-17T16:45:31.855Z,94741.25
2023-02-17T16:48:00.297Z,94733.59
2023-02-17T16:50:32.492Z,94724.13
2023-02-17T16:53:01.876Z,94713.63
2023-02-17T16:55:31.077Z,94714.53
2023-02-17T16:57:58.153Z,94702.72
2023-02-17T17:00:27.925Z,94706.34
2023-02-17T17:02:54.570Z,94710.22
2023-02-17T17:05:21.336Z,94693.34
2023-02-17T17:07:48.105Z,94689.00
2023-02-17T17:10:18.967Z,94691.09
2023-02-17T17:12:46.054Z,94682.81
2023-02-17T17:15:12.996Z,94664.78
2023-02-17T17:18:01.305Z,94668.31
2023-02-17T17:20:34.183Z,94664.94
2023-02-17T17:23:05.934Z,94662.25
2023-02-17T17:25:33.426Z,94667.00
2023-02-17T17:28:00.038Z,94654.47
2023-02-17T17:30:30.732Z,94646.28
2023-02-17T17:32:57.642Z,94640.34
2023-02-17T17:35:24.782Z,94639.25
2023-02-17T17:37:51.336Z,94628.44
2023-02-17T17:40:22.185Z,94618.94
2023-02-17T17:42:49.404Z,94615.94
2023-02-17T17:45:16.164Z,94599.44
2023-02-17T17:47:42.695Z,94594.22
2023-02-17T17:50:17.193Z,94607.94
2023-02-17T17:52:44.936Z,94605.81
2023-02-17T17:55:12.024Z,94601.78
2023-02-17T17:57:38.823Z,94596.84
2023-02-17T18:00:14.105Z,94587.44
2023-02-17T18:02:40.810Z,94589.66
2023-02-17T18:05:07.846Z,94567.63
2023-02-17T18:07:36.700Z,94576.63
2023-02-17T18:10:05.523Z,94570.47
2023-02-17T18:12:32.341Z,94572.47
2023-02-17T18:15:02.613Z,94566.63
2023-02-17T18:17:29.272Z,94565.63
2023-02-17T18:19:57.255Z,94568.03
2023-02-17T18:22:24.094Z,94563.91
2023-02-17T18:24:50.695Z,94550.06
2023-02-17T18:27:17.270Z,94534.94
2023-02-17T18:29:44.201Z,94546.25
2023-02-17T18:32:10.963Z,94546.84
2023-02-17T18:34:37.528Z,94533.28
2023-02-17T18:37:04.111Z,94540.88
2023-02-17T18:39:30.655Z,94538.97
2023-02-17T18:41:57.852Z,94535.84
2023-02-17T18:44:24.355Z,94528.97
2023-02-17T18:46:50.856Z,94523.63
2023-02-17T18:49:17.336Z,94523.00
2023-02-17T18:51:43.904Z,94531.91
2023-02-17T18:54:11.088Z,94536.34
2023-02-17T18:56:37.765Z,94529.78
2023-02-17T18:59:04.999Z,94515.97
2023-02-17T19:01:33.756Z,94505.84
2023-02-17T19:04:00.428Z,94511.72
2023-02-17T19:06:29.577Z,94525.22
2023-02-17T19:08:57.371Z,94509.19
2023-02-17T19:11:24.578Z,94508.03
2023-02-17T19:13:52.159Z,94508.97
2023-02-17T19:16:24.908Z,94518.16
2023-02-17T19:18:52.146Z,94522.31
2023-02-17T19:21:19.103Z,94489.25
2023-02-17T19:23:45.781Z,94493.91
2023-02-17T19:26:13.228Z,94499.75
2023-02-17T19:28:40.430Z,94494.50
2023-02-17T19:31:12.854Z,94496.94
2023-02-17T19:33:39.843Z,94496.84
2023-02-17T19:36:12.012Z,94482.38
2023-02-17T19:38:38.709Z,94475.38
2023-02-17T19:41:06.959Z,94483.56
2023-02-17T19:43:33.718Z,94466.59
2023-02-17T19:46:00.428Z,94468.56
2023-02-17T19:48:27.086Z,94470.97
2023-02-17T19:51:00.947Z,94480.09
2023-02-17T19:53:27.942Z,94473.88
2023-02-17T19:55:54.578Z,94474.72
2023-02-17T19:58:21.073Z,94475.06
2023-02-17T20:00:47.546Z,94461.94
2023-02-17T20:03:14.017Z,94485.25
2023-02-17T20:05:41.324Z,94472.78
2023-02-17T20:08:08.220Z,94464.06
2023-02-17T20:10:34.785Z,94458.69
2023-02-17T20:13:01.440Z,94464.69
2023-02-17T20:15:27.990Z,94456.59
2023-02-17T20:17:54.623Z,94459.69
2023-02-17T20:20:21.147Z,94454.88
2023-02-17T20:22:47.651Z,94456.25
2023-02-17T20:25:14.142Z,94465.44
2023-02-17T20:27:40.705Z,94447.38
2023-02-17T20:30:07.917Z,94452.22
2023-02-17T20:32:34.532Z,94448.47
2023-02-17T20:35:01.619Z,94454.91
2023-02-17T20:37:28.145Z,94445.69
2023-02-17T20:39:54.607Z,94449.63
2023-02-17T20:42:21.619Z,94451.50
2023-02-17T20:44:50.310Z,94447.66
2023-02-17T20:47:16.897Z,94448.25
2023-02-17T20:49:43.358Z,94454.72
2023-02-17T20:52:09.814Z,94454.72
2023-02-17T20:54:36.308Z,94438.59
2023-02-17T20:57:02.820Z,94451.03
2023-02-17T20:59:29.455Z,94440.91
2023-02-17T21:01:56.111Z,94436.44
2023-02-17T21:04:22.581Z,94431.38
2023-02-17T21:06:50.401Z,94420.47
2023-02-17T21:09:18.464Z,94426.31
2023-02-17T21:11:45.612Z,94421.81
2023-02-17T21:14:12.625Z,94415.06
2023-02-17T21:16:39.561Z,94416.09
2023-02-17T21:19:06.277Z,94420.91
2023-02-17T21:21:33.270Z,94424.34
2023-02-17T21:23:59.890Z,94407.81
2023-02-17T21:26:27.590Z,94411.25
2023-02-17T21:28:54.711Z,94412.41
2023-02-17T21:31:21.334Z,94412.75
2023-02-17T21:33:48.018Z,94394.25
2023-02-17T21:36:16.996Z,94407.69
2023-02-17T21:38:44.013Z,94402.53
2023-02-17T21:41:13.225Z,94400.22
2023-02-17T21:43:58.671Z,94412.75
2023-02-17T21:46:25.760Z,94409.41
2023-02-17T21:48:53.381Z,94403.41
2023-02-17T21:51:20.115Z,94404.13
2023-02-17T21:53:46.708Z,94417.94
2023-02-17T21:56:13.425Z,94420.22
2023-02-17T21:58:40.020Z,94433.56
2023-02-17T22:01:07.381Z,94434.97
2023-02-17T22:03:33.893Z,94437.84
2023-02-17T22:06:00.486Z,94438.88
2023-02-17T22:08:26.928Z,94453.00
2023-02-17T22:10:53.457Z,94428.03
2023-02-17T22:13:20.003Z,94429.72
2023-02-17T22:15:46.501Z,94432.59
2023-02-17T22:18:12.960Z,94441.31
2023-02-17T22:20:43.312Z,94443.63
2023-02-17T22:23:09.796Z,94444.28
2023-02-17T22:25:41.303Z,94451.22
2023-02-17T22:28:10.307Z,94444.69
2023-02-17T22:30:37.376Z,94441.28
2023-02-17T22:33:04.097Z,94434.81
2023-02-17T22:35:30.634Z,94430.56
2023-02-17T22:37:58.558Z,94441.94
2023-02-17T22:40:25.634Z,94440.28
2023-02-17T22:42:52.298Z,94436.16
2023-02-17T22:45:18.796Z,94442.72
2023-02-17T22:47:45.318Z,94448.00
2023-02-17T22:50:11.804Z,94458.91
2023-02-17T22:52:38.417Z,94458.16
2023-02-17T22:55:05.210Z,94443.69
2023-02-17T22:57:31.722Z,94448.09
2023-02-17T22:59:58.190Z,94446.66
2023-02-17T23:02:24.625Z,94453.97
2023-02-17T23:04:51.070Z,94445.59
2023-02-17T23:07:17.624Z,94450.41
2023-02-17T23:09:44.191Z,94458.38
2023-02-17T23:12:10.639Z,94459.03
2023-02-17T23:14:39.053Z,94463.47
2023-02-17T23:17:11.495Z,94459.44
2023-02-17T23:19:39.060Z,94468.66
2023-02-17T23:22:10.987Z,94457.38
2023-02-17T23:24:37.807Z,94453.75
2023-02-17T23:27:04.694Z,94447.09
2023-02-17T23:29:32.309Z,94445.03
2023-02-17T23:31:59.438Z,94453.31
2023-02-17T23:34:26.854Z,94463.00
2023-02-17T23:36:53.343Z,94458.75
2023-02-17T23:39:19.837Z,94460.97
2023-02-17T23:41:46.450Z,94463.84
2023-02-17T23:44:14.057Z,94494.97
2023-02-17T23:46:42.069Z,94487.53
2023-02-17T23:49:08.986Z,94484.91
2023-02-17T23:51:35.574Z,94499.78
2023-02-17T23:54:02.188Z,94496.38
2023-02-17T23:56:31.435Z,94484.56
2023-02-17T23:58:58.334Z,94495.31
